Terminal Aerodrome Forecast
Issued by NWS

Home | Current Version | Previous Version | Graphics & Text | Print | Product List | Glossary On
Versions: 1 2 3 4 5 6 7 8 9 10 11 12 13 14 15 16 17 18 19
000
FTUS43 KBIS 241700
TAFJMS
TAF
KJMS 241720Z 2418/2518 15023G30KT 5SM BR VCSH BKN010 OVC035
      TEMPO 2418/2421 15026G36KT 3SM -RA BR SCT010 OVC035
     FM242100 17019G25KT P6SM VCSH SCT025 BKN035 OVC050
     FM250300 28017G26KT 5SM BR SCT008 BKN015 OVC025
     FM250700 31025G35KT 4SM BR OVC012=

USA.gov is the U.S. government's official web portal to all federal, state and local government web resources and services.